NO-0021 weather

Atna
Stor-Elvdal, Hedmark, Norway

Public forecast

Using degrees Celsius for public forecast. Weather courtesy of forecast.io.

METAR (pilot weather report)

Closest report is Røros Airport, 53.1 nm (98.3 km) NNE. Retrieved 2019/07/20 17:20 UTC (0 seconds ago):

ENRO 201720Z AUTO 16012KT 9999NDV NCD 19/07 Q1011

TAF (pilot weather forecast)

Closest forecast is Oslo Gardermoen Airport, 92.3 nm (170.9 km) S. Retrieved 2019/07/20 12:57 UTC (4 hours ago):

TAF ENGM 201100Z 2012/2112 18005KT 9999 FEW020 BKN040 TEMPO 2018/2103 03010KT SHRA SCT025CB BKN030 TEMPO 2103/2112 3000 SHRA BR BKN008 SCT020CB PROB30 TEMPO 2110/2112 TSRA